createdAt,value
2023-05-19T00:01:17.669Z,11.30
2023-05-19T00:03:53.903Z,11.20
2023-05-19T00:06:41.572Z,11.20
2023-05-19T00:09:10.391Z,11.30
2023-05-19T00:11:39.454Z,11.20
2023-05-19T00:14:08.216Z,11.20
2023-05-19T00:16:36.408Z,11.20
2023-05-19T00:19:05.430Z,11.20
2023-05-19T00:21:32.884Z,11.20
2023-05-19T00:23:59.653Z,11.20
2023-05-19T00:26:27.219Z,11.10
2023-05-19T00:28:53.996Z,11.10
2023-05-19T00:31:21.006Z,11.10
2023-05-19T00:33:47.870Z,11.00
2023-05-19T00:36:14.607Z,10.90
2023-05-19T00:38:41.346Z,10.90
2023-05-19T00:41:08.144Z,11.00
2023-05-19T00:43:34.889Z,11.00
2023-05-19T00:46:02.346Z,11.00
2023-05-19T00:48:29.425Z,11.00
2023-05-19T00:51:04.730Z,11.00
2023-05-19T00:53:35.475Z,11.00
2023-05-19T00:56:03.459Z,10.90
2023-05-19T00:58:32.535Z,10.80
2023-05-19T01:01:04.581Z,10.80
2023-05-19T01:03:35.134Z,10.90
2023-05-19T01:06:06.011Z,10.80
2023-05-19T01:08:34.321Z,10.80
2023-05-19T01:11:01.245Z,10.70
2023-05-19T01:13:29.121Z,10.80
2023-05-19T01:16:07.034Z,10.70
2023-05-19T01:18:56.860Z,10.70
2023-05-19T01:21:36.343Z,10.70
2023-05-19T01:24:14.401Z,10.70
2023-05-19T01:26:50.597Z,10.60
2023-05-19T01:29:32.930Z,10.50
2023-05-19T01:32:00.680Z,10.40
2023-05-19T01:34:29.525Z,10.40
2023-05-19T01:36:58.235Z,10.50
2023-05-19T01:39:26.039Z,10.40
2023-05-19T01:41:53.882Z,10.40
2023-05-19T01:44:22.175Z,10.30
2023-05-19T01:46:49.638Z,10.30
2023-05-19T01:49:16.376Z,10.20
2023-05-19T01:51:43.295Z,10.20
2023-05-19T01:54:10.073Z,10.30
2023-05-19T01:56:52.607Z,10.40
2023-05-19T01:59:46.439Z,10.20
2023-05-19T02:02:59.095Z,10.40
2023-05-19T02:05:43.534Z,10.30
2023-05-19T02:08:20.524Z,10.20
2023-05-19T02:10:54.821Z,10.20
2023-05-19T02:13:26.738Z,10.10
2023-05-19T02:15:57.026Z,10.10
2023-05-19T02:18:25.133Z,10.00
2023-05-19T02:20:51.920Z,10.00
2023-05-19T02:23:18.744Z,10.00
2023-05-19T02:25:45.543Z,9.90
2023-05-19T02:28:12.258Z,9.90
2023-05-19T02:30:39.079Z,9.80
2023-05-19T02:33:06.621Z,9.80
2023-05-19T02:35:33.820Z,9.90
2023-05-19T02:38:00.534Z,9.90
2023-05-19T02:40:27.256Z,9.80
2023-05-19T02:42:54.074Z,9.90
2023-05-19T02:45:20.781Z,9.90
2023-05-19T02:47:47.608Z,9.90
2023-05-19T02:50:14.365Z,9.90
2023-05-19T02:52:41.106Z,9.90
2023-05-19T02:55:08.372Z,9.90
2023-05-19T02:57:35.585Z,9.90
2023-05-19T03:00:02.657Z,9.90
2023-05-19T03:02:29.711Z,9.90
2023-05-19T03:04:56.593Z,10.00
2023-05-19T03:07:25.289Z,10.00
2023-05-19T03:09:52.589Z,10.10
2023-05-19T03:12:19.333Z,10.10
2023-05-19T03:14:46.398Z,10.10
2023-05-19T03:17:13.273Z,10.10
2023-05-19T03:19:40.049Z,10.10
2023-05-19T03:22:06.993Z,10.20
2023-05-19T03:24:33.763Z,10.30
2023-05-19T03:27:00.707Z,10.30
2023-05-19T03:29:27.443Z,10.30
2023-05-19T03:31:54.359Z,10.40
2023-05-19T03:34:22.407Z,10.40
2023-05-19T03:36:50.378Z,10.40
2023-05-19T03:39:17.273Z,10.40
2023-05-19T03:41:44.013Z,10.40
2023-05-19T03:44:10.802Z,10.30
2023-05-19T03:46:37.565Z,10.40
2023-05-19T03:49:04.272Z,10.30
2023-05-19T03:51:31.010Z,10.20
2023-05-19T03:53:57.996Z,10.20
2023-05-19T03:56:26.539Z,10.10
2023-05-19T03:58:54.770Z,10.20
2023-05-19T04:01:21.553Z,10.20
2023-05-19T04:03:48.359Z,10.30
2023-05-19T04:06:15.261Z,10.30
2023-05-19T04:08:42.034Z,10.40
2023-05-19T04:11:08.902Z,10.50
2023-05-19T04:13:35.645Z,10.60
2023-05-19T04:16:02.661Z,10.60
2023-05-19T04:18:29.574Z,10.70
2023-05-19T04:20:56.432Z,10.60
2023-05-19T04:23:23.279Z,10.50
2023-05-19T04:25:50.165Z,10.60
2023-05-19T04:28:18.017Z,10.50
2023-05-19T04:30:46.613Z,10.60
2023-05-19T04:33:13.805Z,10.70
2023-05-19T04:35:40.918Z,10.60
2023-05-19T04:38:07.737Z,10.70
2023-05-19T04:40:34.735Z,10.80
2023-05-19T04:43:02.379Z,10.70
2023-05-19T04:45:29.341Z,10.70
2023-05-19T04:47:58.206Z,10.70
2023-05-19T04:50:25.283Z,10.80
2023-05-19T04:52:52.026Z,10.80
2023-05-19T04:55:18.767Z,10.80
2023-05-19T04:57:45.598Z,10.60
2023-05-19T05:00:14.373Z,10.50
2023-05-19T05:02:42.940Z,10.60
2023-05-19T05:05:10.178Z,10.70
2023-05-19T05:07:36.922Z,10.90
2023-05-19T05:10:04.090Z,10.90
2023-05-19T05:12:31.676Z,11.00
2023-05-19T05:14:58.780Z,11.10
2023-05-19T05:17:27.154Z,10.90
2023-05-19T05:19:54.346Z,11.00
2023-05-19T05:22:21.427Z,11.10
2023-05-19T05:24:48.762Z,11.10
2023-05-19T05:27:15.667Z,11.00
2023-05-19T05:29:42.454Z,10.90
2023-05-19T05:32:09.254Z,11.00
2023-05-19T05:34:38.067Z,11.00
2023-05-19T05:37:04.948Z,11.10
2023-05-19T05:39:31.914Z,11.00
2023-05-19T05:41:58.765Z,11.10
2023-05-19T05:44:25.648Z,11.10
2023-05-19T05:46:52.763Z,11.30
2023-05-19T05:49:19.978Z,11.30
2023-05-19T05:51:54.709Z,11.40
2023-05-19T05:54:31.844Z,11.40
2023-05-19T05:56:58.916Z,11.50
2023-05-19T05:59:25.681Z,11.60
2023-05-19T06:01:52.464Z,12.10
2023-05-19T06:04:20.982Z,12.50
2023-05-19T06:06:47.816Z,12.60
2023-05-19T06:09:14.523Z,12.60
2023-05-19T06:11:41.398Z,12.50
2023-05-19T06:14:08.201Z,12.50
2023-05-19T06:16:34.992Z,12.40
2023-05-19T06:19:01.717Z,12.50
2023-05-19T06:21:28.526Z,12.60
2023-05-19T06:23:55.495Z,12.90
2023-05-19T06:26:22.220Z,13.50
2023-05-19T06:28:48.956Z,13.80
2023-05-19T06:31:16.517Z,14.20
2023-05-19T06:33:43.351Z,14.50
2023-05-19T06:36:10.703Z,14.70
2023-05-19T06:38:37.423Z,14.70
2023-05-19T06:41:04.204Z,14.70
2023-05-19T06:43:31.016Z,15.00
2023-05-19T06:45:57.722Z,15.10
2023-05-19T06:48:24.485Z,15.10
2023-05-19T06:50:51.732Z,15.10
2023-05-19T06:53:20.084Z,15.20
2023-05-19T06:55:57.869Z,15.30
2023-05-19T06:58:25.258Z,15.40
2023-05-19T07:00:52.019Z,15.20
2023-05-19T07:03:18.841Z,15.00
2023-05-19T07:05:45.934Z,14.90
2023-05-19T07:08:12.715Z,15.30
2023-05-19T07:10:39.597Z,15.00
2023-05-19T07:13:06.365Z,15.00
2023-05-19T07:15:33.610Z,14.60
2023-05-19T07:18:00.578Z,14.70
2023-05-19T07:20:27.355Z,14.70
2023-05-19T07:22:54.343Z,14.90
2023-05-19T07:25:21.346Z,15.10
2023-05-19T07:27:48.112Z,14.90
2023-05-19T07:30:15.052Z,14.80
2023-05-19T07:32:41.828Z,14.80
2023-05-19T07:35:08.850Z,14.60
2023-05-19T07:37:36.026Z,14.40
2023-05-19T07:40:02.842Z,14.10
2023-05-19T07:42:29.639Z,14.40
2023-05-19T07:44:56.392Z,14.10
2023-05-19T07:47:23.218Z,14.10
2023-05-19T07:49:51.742Z,14.20
2023-05-19T07:52:18.816Z,13.90
2023-05-19T07:54:46.275Z,13.80
2023-05-19T07:57:14.506Z,13.70
2023-05-19T07:59:41.385Z,13.80
2023-05-19T08:02:08.190Z,13.80
2023-05-19T08:04:35.007Z,13.90
2023-05-19T08:07:01.908Z,13.70
2023-05-19T08:09:28.597Z,13.60
2023-05-19T08:11:55.592Z,13.60
2023-05-19T08:14:22.900Z,13.50
2023-05-19T08:16:50.481Z,13.40
2023-05-19T08:19:17.383Z,13.30
2023-05-19T08:21:44.747Z,13.20
2023-05-19T08:24:12.010Z,13.10
2023-05-19T08:26:38.808Z,13.20
2023-05-19T08:29:05.637Z,13.20
2023-05-19T08:31:32.648Z,13.20
2023-05-19T08:33:59.520Z,13.20
2023-05-19T08:36:26.352Z,13.20
2023-05-19T08:38:53.108Z,13.20
2023-05-19T08:41:19.910Z,13.20
2023-05-19T08:43:46.618Z,13.10
2023-05-19T08:46:16.301Z,13.00
2023-05-19T08:48:44.605Z,12.90
2023-05-19T08:51:39.162Z,13.00
2023-05-19T08:54:16.614Z,13.10
2023-05-19T08:56:44.961Z,13.00
2023-05-19T08:59:18.093Z,13.00
2023-05-19T09:01:46.374Z,13.00
2023-05-19T09:04:13.549Z,13.20
2023-05-19T09:06:41.291Z,13.20
2023-05-19T09:09:08.691Z,13.20
2023-05-19T09:11:37.580Z,13.20
2023-05-19T09:14:05.910Z,13.10
2023-05-19T09:16:33.923Z,13.20
2023-05-19T09:19:01.221Z,13.20
2023-05-19T09:21:31.684Z,13.40
2023-05-19T09:24:04.554Z,13.40
2023-05-19T09:26:41.657Z,13.40
2023-05-19T09:29:17.818Z,13.60
2023-05-19T09:31:55.985Z,13.70
2023-05-19T09:34:24.908Z,14.00
2023-05-19T09:36:54.572Z,14.10
2023-05-19T09:39:23.349Z,14.10
2023-05-19T09:41:54.537Z,14.20
2023-05-19T09:44:21.307Z,14.50
2023-05-19T09:46:52.722Z,14.40
2023-05-19T09:49:21.749Z,14.40
2023-05-19T09:51:54.704Z,14.70
2023-05-19T09:54:23.716Z,14.70
2023-05-19T09:57:01.232Z,14.70
2023-05-19T09:59:32.063Z,15.20
2023-05-19T10:02:00.786Z,14.90
2023-05-19T10:04:28.892Z,14.90
2023-05-19T10:06:59.842Z,14.80
2023-05-19T10:09:28.878Z,14.80
2023-05-19T10:11:57.063Z,14.40
2023-05-19T10:14:25.495Z,14.00
2023-05-19T10:16:53.853Z,14.00
2023-05-19T10:19:25.694Z,14.20
2023-05-19T10:21:53.335Z,14.50
2023-05-19T10:24:21.273Z,14.50
2023-05-19T10:27:06.669Z,14.70
2023-05-19T10:29:37.842Z,14.70
2023-05-19T10:32:10.882Z,14.60
2023-05-19T10:35:16.668Z,14.30
2023-05-19T10:38:05.884Z,14.10
2023-05-19T10:40:55.121Z,14.20
2023-05-19T10:43:39.625Z,14.30
2023-05-19T10:46:06.463Z,14.40
2023-05-19T10:48:37.473Z,14.30
2023-05-19T10:51:05.262Z,14.30
2023-05-19T10:53:33.124Z,14.30
2023-05-19T10:56:06.995Z,14.20
2023-05-19T10:58:48.787Z,14.30
2023-05-19T11:01:20.983Z,14.20
2023-05-19T11:03:53.415Z,14.00
2023-05-19T11:06:29.106Z,13.90
2023-05-19T11:09:19.455Z,13.90
2023-05-19T11:11:55.696Z,14.00
2023-05-19T11:14:26.561Z,14.00
2023-05-19T11:16:57.263Z,13.80
2023-05-19T11:19:37.225Z,13.70
2023-05-19T11:22:11.401Z,13.70
2023-05-19T11:24:40.069Z,13.50
2023-05-19T11:27:33.268Z,13.50
2023-05-19T11:30:11.428Z,13.50
2023-05-19T11:32:42.844Z,13.60
2023-05-19T11:35:11.096Z,13.80
2023-05-19T11:37:37.960Z,13.90
2023-05-19T11:40:09.075Z,13.70
2023-05-19T11:42:37.045Z,13.80
2023-05-19T11:45:04.856Z,14.00
2023-05-19T11:47:45.958Z,14.20
2023-05-19T11:50:19.077Z,14.30
2023-05-19T11:52:47.517Z,14.60
2023-05-19T11:55:18.607Z,14.50
2023-05-19T11:58:04.685Z,14.20
2023-05-19T12:00:40.008Z,14.30
2023-05-19T12:03:08.735Z,14.10
2023-05-19T12:05:45.685Z,14.00
2023-05-19T12:08:13.177Z,13.90
2023-05-19T12:10:40.977Z,14.00
2023-05-19T12:13:11.062Z,14.30
2023-05-19T12:15:38.813Z,14.50
2023-05-19T12:18:06.716Z,14.00
2023-05-19T12:20:37.722Z,13.90
2023-05-19T12:23:05.121Z,14.00
2023-05-19T12:25:32.382Z,13.80
2023-05-19T12:28:02.897Z,13.90
2023-05-19T12:30:30.864Z,13.80
2023-05-19T12:32:58.225Z,13.80
2023-05-19T12:35:30.014Z,13.90
2023-05-19T12:37:57.684Z,14.00
2023-05-19T12:40:25.837Z,14.00
2023-05-19T12:42:59.002Z,14.20
2023-05-19T12:45:28.696Z,14.40
2023-05-19T12:47:56.196Z,14.40
2023-05-19T12:50:31.248Z,14.70
2023-05-19T12:52:59.872Z,14.90
2023-05-19T12:55:27.016Z,15.20
2023-05-19T12:57:57.011Z,15.30
2023-05-19T13:00:28.106Z,14.90
2023-05-19T13:03:01.691Z,14.50
2023-05-19T13:05:29.849Z,14.30
2023-05-19T13:07:58.121Z,14.50
2023-05-19T13:10:28.588Z,14.90
2023-05-19T13:12:56.428Z,14.90
2023-05-19T13:15:24.999Z,15.10
2023-05-19T13:17:52.392Z,15.20
2023-05-19T13:20:20.022Z,15.10
2023-05-19T13:22:48.100Z,15.10
2023-05-19T13:25:15.191Z,15.20
2023-05-19T13:27:42.452Z,15.30
2023-05-19T13:30:09.614Z,15.40
2023-05-19T13:32:36.435Z,15.40
2023-05-19T13:35:03.595Z,15.50
2023-05-19T13:37:30.769Z,15.70
2023-05-19T13:40:01.240Z,15.60
2023-05-19T13:42:28.240Z,15.60
2023-05-19T13:44:56.403Z,15.50
2023-05-19T13:47:24.199Z,15.40
2023-05-19T13:49:51.964Z,15.70
2023-05-19T13:52:20.802Z,15.70
2023-05-19T13:54:48.756Z,15.80
2023-05-19T13:57:16.645Z,15.60
2023-05-19T13:59:57.758Z,15.60
2023-05-19T14:02:27.570Z,15.60
2023-05-19T14:04:54.499Z,15.70
2023-05-19T14:07:21.283Z,15.80
2023-05-19T14:09:48.111Z,16.00
2023-05-19T14:12:15.388Z,16.20
2023-05-19T14:14:42.346Z,16.40
2023-05-19T14:17:09.342Z,16.30
2023-05-19T14:19:36.079Z,16.40
2023-05-19T14:22:02.911Z,16.40
2023-05-19T14:24:29.705Z,16.40
2023-05-19T14:26:56.467Z,16.60
2023-05-19T14:29:23.264Z,16.70
2023-05-19T14:31:50.198Z,16.70
2023-05-19T14:34:20.996Z,16.50
2023-05-19T14:36:48.762Z,16.30
2023-05-19T14:39:16.043Z,16.40
2023-05-19T14:41:42.798Z,16.50
2023-05-19T14:44:09.575Z,16.60
2023-05-19T14:46:36.773Z,16.60
2023-05-19T14:49:03.650Z,16.60
2023-05-19T14:51:31.607Z,16.60
2023-05-19T14:53:58.389Z,16.60
2023-05-19T14:56:25.399Z,16.50
2023-05-19T14:58:52.186Z,16.60
2023-05-19T15:01:19.056Z,16.60
2023-05-19T15:03:46.009Z,16.50
2023-05-19T15:06:12.976Z,16.40
2023-05-19T15:08:41.088Z,16.50
2023-05-19T15:11:08.102Z,16.70
2023-05-19T15:13:34.881Z,16.80
2023-05-19T15:16:16.289Z,16.70
2023-05-19T15:18:45.018Z,16.60
2023-05-19T15:21:12.057Z,16.50
2023-05-19T15:23:38.855Z,16.60
2023-05-19T15:26:06.073Z,16.70
2023-05-19T15:28:33.612Z,16.90
2023-05-19T15:31:00.368Z,17.10
2023-05-19T15:33:27.248Z,17.00
2023-05-19T15:35:54.288Z,16.80
2023-05-19T15:38:21.154Z,16.80
2023-05-19T15:40:48.067Z,16.70
2023-05-19T15:43:14.954Z,16.70
2023-05-19T15:45:41.710Z,16.80
2023-05-19T15:48:08.589Z,16.90
2023-05-19T15:50:36.055Z,16.90
2023-05-19T15:53:03.388Z,16.70
2023-05-19T15:55:30.440Z,16.80
2023-05-19T15:57:57.248Z,16.80
2023-05-19T16:00:24.061Z,16.80
2023-05-19T16:02:51.235Z,17.00
2023-05-19T16:05:18.308Z,17.20
2023-05-19T16:07:45.184Z,17.30
2023-05-19T16:10:12.099Z,17.00
2023-05-19T16:12:38.902Z,17.00
2023-05-19T16:15:06.128Z,16.90
2023-05-19T16:17:33.133Z,16.70
2023-05-19T16:19:59.953Z,16.80
2023-05-19T16:22:27.200Z,16.90
2023-05-19T16:24:54.038Z,16.90
2023-05-19T16:27:20.854Z,16.80
2023-05-19T16:29:47.680Z,16.80
2023-05-19T16:32:14.513Z,16.80
2023-05-19T16:34:41.407Z,16.90
2023-05-19T16:37:08.159Z,16.80
2023-05-19T16:39:37.981Z,16.60
2023-05-19T16:42:05.164Z,16.60
2023-05-19T16:44:31.964Z,16.70
2023-05-19T16:46:58.835Z,16.70
2023-05-19T16:49:25.677Z,16.80
2023-05-19T16:51:53.204Z,16.90
2023-05-19T16:54:20.859Z,16.90
2023-05-19T16:56:47.776Z,16.90
2023-05-19T16:59:14.616Z,16.90
2023-05-19T17:01:41.556Z,16.80
2023-05-19T17:04:09.592Z,16.70
2023-05-19T17:06:36.508Z,16.80
2023-05-19T17:09:03.838Z,16.80
2023-05-19T17:11:30.707Z,16.70
2023-05-19T17:13:57.516Z,16.80
2023-05-19T17:16:24.326Z,16.90
2023-05-19T17:18:51.664Z,16.90
2023-05-19T17:21:18.545Z,16.90
2023-05-19T17:23:45.603Z,16.80
2023-05-19T17:26:12.488Z,16.80
2023-05-19T17:28:39.277Z,16.80
2023-05-19T17:31:10.928Z,16.80
2023-05-19T17:33:37.882Z,16.90
2023-05-19T17:36:05.534Z,16.70
2023-05-19T17:38:32.685Z,16.50
2023-05-19T17:41:04.567Z,16.50
2023-05-19T17:43:31.431Z,16.40
2023-05-19T17:46:00.289Z,16.40
2023-05-19T17:48:27.863Z,16.40
2023-05-19T17:50:54.701Z,16.30
2023-05-19T17:53:21.832Z,16.40
2023-05-19T17:55:53.456Z,16.40
2023-05-19T17:58:20.821Z,16.40
2023-05-19T18:00:47.630Z,16.50
2023-05-19T18:03:14.873Z,16.50
2023-05-19T18:05:43.365Z,16.40
2023-05-19T18:08:10.821Z,16.50
2023-05-19T18:10:39.653Z,16.40
2023-05-19T18:13:07.319Z,16.40
2023-05-19T18:15:34.702Z,16.40
2023-05-19T18:18:03.052Z,16.30
2023-05-19T18:20:31.144Z,16.30
2023-05-19T18:22:58.268Z,16.30
2023-05-19T18:25:25.194Z,16.30
2023-05-19T18:27:55.657Z,16.30
2023-05-19T18:30:23.383Z,16.20
2023-05-19T18:32:50.302Z,16.30
2023-05-19T18:35:17.269Z,16.40
2023-05-19T18:37:44.070Z,16.50
2023-05-19T18:40:13.944Z,16.40
2023-05-19T18:42:40.772Z,16.40
2023-05-19T18:45:07.947Z,16.40
2023-05-19T18:47:34.813Z,16.40
2023-05-19T18:50:01.601Z,16.40
2023-05-19T18:52:29.105Z,16.50
2023-05-19T18:54:55.918Z,16.50
2023-05-19T18:57:22.717Z,16.40
2023-05-19T18:59:49.468Z,16.40
2023-05-19T19:02:16.234Z,16.50
2023-05-19T19:04:43.240Z,16.40
2023-05-19T19:07:10.038Z,16.40
2023-05-19T19:09:36.832Z,16.30
2023-05-19T19:12:03.733Z,16.30
2023-05-19T19:14:30.480Z,16.30
2023-05-19T19:16:57.387Z,16.30
2023-05-19T19:19:24.420Z,16.20
2023-05-19T19:21:51.215Z,16.30
2023-05-19T19:24:17.967Z,16.30
2023-05-19T19:26:44.747Z,16.40
2023-05-19T19:29:11.979Z,16.50
2023-05-19T19:31:38.871Z,16.40
2023-05-19T19:34:09.205Z,16.40
2023-05-19T19:36:36.326Z,16.40
2023-05-19T19:39:03.226Z,16.40
2023-05-19T19:41:30.256Z,16.40
2023-05-19T19:43:57.024Z,16.30
2023-05-19T19:46:23.808Z,16.30
2023-05-19T19:48:51.239Z,16.30
2023-05-19T19:51:18.142Z,16.30
2023-05-19T19:53:45.132Z,16.30
2023-05-19T19:56:11.959Z,16.30
2023-05-19T19:58:38.754Z,16.30
2023-05-19T20:01:06.282Z,16.30
2023-05-19T20:03:33.393Z,16.40
2023-05-19T20:06:00.487Z,16.50
2023-05-19T20:08:27.520Z,16.50
2023-05-19T20:10:54.607Z,16.50
2023-05-19T20:13:21.438Z,16.40
2023-05-19T20:15:48.289Z,16.40
2023-05-19T20:18:15.273Z,16.30
2023-05-19T20:20:42.269Z,16.10
2023-05-19T20:23:09.264Z,16.10
2023-05-19T20:25:57.867Z,16.10
2023-05-19T20:28:29.499Z,15.90
2023-05-19T20:30:56.320Z,15.80
2023-05-19T20:33:23.141Z,15.80
2023-05-19T20:35:49.876Z,15.70
2023-05-19T20:38:16.655Z,15.60
2023-05-19T20:40:43.460Z,15.60
2023-05-19T20:43:12.250Z,15.50
2023-05-19T20:45:39.200Z,15.60
2023-05-19T20:48:06.306Z,15.60
2023-05-19T20:50:33.264Z,15.60
2023-05-19T20:53:01.046Z,15.60
2023-05-19T20:55:28.222Z,15.60
2023-05-19T20:57:55.072Z,15.50
2023-05-19T21:00:21.928Z,15.50
2023-05-19T21:02:48.757Z,15.40
2023-05-19T21:05:15.700Z,15.30
2023-05-19T21:07:42.546Z,15.30
2023-05-19T21:10:09.709Z,15.20
2023-05-19T21:12:36.509Z,15.20
2023-05-19T21:15:03.828Z,15.20
2023-05-19T21:17:30.754Z,15.20
2023-05-19T21:19:59.571Z,15.10
2023-05-19T21:22:27.106Z,15.10
2023-05-19T21:24:54.421Z,15.10
2023-05-19T21:27:21.659Z,15.00
2023-05-19T21:29:53.128Z,15.00
2023-05-19T21:32:20.727Z,15.00
2023-05-19T21:34:47.670Z,15.00
2023-05-19T21:37:16.336Z,14.90
2023-05-19T21:39:43.495Z,14.80
2023-05-19T21:42:10.271Z,14.80
2023-05-19T21:44:37.058Z,14.80
2023-05-19T21:47:03.807Z,14.80
2023-05-19T21:49:31.485Z,14.80
2023-05-19T21:51:58.497Z,14.70
2023-05-19T21:54:25.333Z,14.70
2023-05-19T21:56:52.196Z,14.70
2023-05-19T21:59:23.132Z,14.60
2023-05-19T22:01:50.326Z,14.60
2023-05-19T22:04:18.636Z,14.60
2023-05-19T22:06:45.630Z,14.50
2023-05-19T22:09:12.771Z,14.50
2023-05-19T22:11:39.806Z,14.40
2023-05-19T22:14:06.937Z,14.50
2023-05-19T22:16:33.802Z,14.50
2023-05-19T22:19:00.688Z,14.40
2023-05-19T22:21:27.483Z,14.40
2023-05-19T22:23:54.242Z,14.30
2023-05-19T22:26:22.141Z,14.30
2023-05-19T22:28:49.613Z,14.30
2023-05-19T22:31:16.728Z,14.30
2023-05-19T22:33:43.572Z,14.30
2023-05-19T22:36:11.071Z,14.30
2023-05-19T22:38:37.924Z,14.30
2023-05-19T22:41:05.061Z,14.30
2023-05-19T22:43:31.857Z,14.30
2023-05-19T22:45:58.648Z,14.30
2023-05-19T22:48:25.746Z,14.40
2023-05-19T22:50:52.647Z,14.40
2023-05-19T22:53:19.398Z,14.50
2023-05-19T22:55:46.254Z,14.40
2023-05-19T22:58:13.163Z,14.40
2023-05-19T23:00:39.991Z,14.40
2023-05-19T23:03:06.892Z,14.40
2023-05-19T23:05:34.346Z,14.40
2023-05-19T23:08:01.471Z,14.30
2023-05-19T23:10:28.189Z,14.30
2023-05-19T23:12:54.948Z,14.30
2023-05-19T23:15:21.721Z,14.30
2023-05-19T23:17:48.673Z,14.30
2023-05-19T23:20:15.756Z,14.20
2023-05-19T23:22:42.516Z,14.00
2023-05-19T23:25:09.493Z,14.00
2023-05-19T23:27:36.638Z,14.00
2023-05-19T23:30:04.225Z,13.90
2023-05-19T23:32:31.134Z,13.90
2023-05-19T23:34:57.960Z,13.80
2023-05-19T23:37:24.779Z,13.80
2023-05-19T23:39:51.586Z,13.80
2023-05-19T23:42:18.344Z,13.80
2023-05-19T23:44:45.131Z,13.70
2023-05-19T23:47:11.883Z,13.70
2023-05-19T23:49:38.727Z,13.60
2023-05-19T23:52:06.951Z,13.60
2023-05-19T23:54:33.685Z,13.60
2023-05-19T23:57:02.663Z,13.60
2023-05-19T23:59:29.388Z,13.60
